Time;durP1;ratioP1;P1;durP2;ratioP2;P2;SDS_P1;SDS_P2;PMS_P1;PMS_P2;Temp;Humidity;BMP_temperature;BMP_pressure;BME280_temperature;BME280_humidity;BME280_pressure;Samples;Min_cycle;Max_cycle;Signal;HPM_P1;HPM_P2
2023/07/19 00:02:09;;;;;;;4.20;2.40;;;15.30;99.90;;;;;;4973405;28;20683;-86
2023/07/19 00:04:35;;;;;;;5.75;3.17;;;15.20;99.90;;;;;;4957478;28;20649;-86
2023/07/19 00:07:01;;;;;;;4.95;2.70;;;15.10;99.90;;;;;;4974200;28;20174;-86
2023/07/19 00:09:26;;;;;;;6.95;3.05;;;15.10;99.90;;;;;;4974291;28;20742;-86
2023/07/19 00:11:52;;;;;;;6.57;2.92;;;15.10;99.90;;;;;;4974183;28;20178;-87
2023/07/19 00:14:18;;;;;;;3.65;2.40;;;15.10;99.90;;;;;;4956848;28;20194;-86
2023/07/19 00:16:44;;;;;;;4.80;2.60;;;15.10;99.90;;;;;;4956746;28;20640;-87
2023/07/19 00:19:10;;;;;;;6.60;2.70;;;15.10;99.90;;;;;;4956636;28;20225;-87
2023/07/19 00:21:35;;;;;;;3.75;2.13;;;15.10;99.90;;;;;;4974254;28;20185;-87
2023/07/19 00:24:01;;;;;;;4.97;2.78;;;15.00;99.90;;;;;;4972992;28;20265;-87
2023/07/19 00:26:27;;;;;;;4.63;2.78;;;15.00;99.90;;;;;;4974252;28;20221;-86
2023/07/19 00:28:52;;;;;;;5.63;2.58;;;15.00;99.90;;;;;;4972443;28;20221;-86
2023/07/19 00:31:18;;;;;;;5.97;2.97;;;15.00;99.90;;;;;;4974185;28;20658;-87
2023/07/19 00:33:43;;;;;;;6.78;3.08;;;15.00;99.90;;;;;;4973810;28;20190;-86
2023/07/19 00:36:09;;;;;;;5.07;2.90;;;15.00;99.90;;;;;;4940963;28;20652;-86
2023/07/19 00:38:35;;;;;;;6.78;2.72;;;14.90;99.90;;;;;;4973071;28;20179;-86
2023/07/19 00:41:01;;;;;;;6.80;3.33;;;14.90;99.90;;;;;;4973762;28;20186;-86
2023/07/19 00:43:26;;;;;;;4.57;3.10;;;14.90;99.90;;;;;;4957157;28;20194;-86
2023/07/19 00:45:54;;;;;;;5.85;2.75;;;14.80;99.90;;;;;;4977383;28;20178;-86
2023/07/19 00:48:21;;;;;;;5.63;2.78;;;14.80;99.90;;;;;;4977645;28;20225;-86
2023/07/19 00:50:49;;;;;;;3.33;2.47;;;14.80;99.90;;;;;;4960134;28;20249;-87
2023/07/19 00:53:15;;;;;;;4.18;2.97;;;14.80;99.90;;;;;;4977774;28;20186;-86
2023/07/19 00:55:41;;;;;;;3.88;2.78;;;14.70;99.90;;;;;;4976393;28;20183;-86
2023/07/19 00:58:07;;;;;;;3.22;2.47;;;14.70;99.90;;;;;;4976392;28;20193;-86
2023/07/19 01:00:33;;;;;;;4.97;2.53;;;14.70;99.90;;;;;;4977271;28;20718;-86
2023/07/19 01:02:59;;;;;;;3.72;2.42;;;14.70;99.90;;;;;;4975828;28;20179;-87
2023/07/19 01:05:26;;;;;;;5.20;2.80;;;14.70;99.90;;;;;;4960156;28;20636;-86
2023/07/19 01:07:53;;;;;;;5.13;3.10;;;14.70;99.90;;;;;;4959979;28;20541;-87
2023/07/19 01:10:19;;;;;;;5.53;2.92;;;14.60;99.90;;;;;;4977451;28;20210;-86
2023/07/19 01:13:11;;;;;;;4.57;3.22;;;14.60;99.90;;;;;;4959779;28;20178;-87
2023/07/19 01:15:37;;;;;;;5.18;3.25;;;14.60;99.90;;;;;;4977226;28;20185;-86
2023/07/19 01:18:04;;;;;;;5.20;3.03;;;14.60;99.90;;;;;;4959661;28;20553;-87
2023/07/19 01:20:30;;;;;;;6.45;2.33;;;14.50;99.90;;;;;;4959784;28;20194;-87
2023/07/19 01:22:56;;;;;;;4.68;2.75;;;14.50;99.90;;;;;;4976818;28;20182;-86
2023/07/19 01:25:23;;;;;;;4.13;2.63;;;14.50;99.90;;;;;;4977038;28;20179;-87
2023/07/19 01:27:49;;;;;;;5.07;2.55;;;14.50;99.90;;;;;;4959408;28;20241;-87
2023/07/19 01:30:15;;;;;;;6.30;3.17;;;14.40;99.90;;;;;;4975748;28;20230;-86
2023/07/19 01:32:41;;;;;;;3.33;2.22;;;14.40;99.90;;;;;;4976999;28;20178;-87
2023/07/19 01:35:09;;;;;;;4.72;2.67;;;14.30;99.90;;;;;;4976758;28;20618;-86
2023/07/19 01:37:34;;;;;;;4.85;2.75;;;14.30;99.90;;;;;;4975837;28;20187;-86
2023/07/19 01:40:01;;;;;;;6.13;3.00;;;14.40;99.90;;;;;;4975355;28;20241;-87
2023/07/19 01:42:27;;;;;;;4.95;2.70;;;14.30;99.90;;;;;;4976813;28;20233;-87
2023/07/19 01:44:54;;;;;;;4.35;2.78;;;14.20;99.90;;;;;;4976665;28;20187;-87
2023/07/19 01:47:19;;;;;;;5.53;3.22;;;14.10;99.90;;;;;;4975502;28;20186;-87
2023/07/19 01:49:45;;;;;;;4.38;2.90;;;14.10;99.90;;;;;;4975191;28;20218;-86
2023/07/19 01:52:11;;;;;;;3.70;2.67;;;14.10;99.90;;;;;;4975374;28;20281;-86
2023/07/19 01:54:37;;;;;;;3.85;2.25;;;14.10;99.90;;;;;;4976490;28;20628;-86
2023/07/19 01:57:04;;;;;;;4.30;2.95;;;14.10;99.90;;;;;;4941967;28;20191;-86
2023/07/19 01:59:29;;;;;;;4.43;3.13;;;14.00;99.90;;;;;;4976568;28;20354;-86
2023/07/19 02:01:55;;;;;;;5.65;2.75;;;14.00;99.90;;;;;;4976611;28;20224;-87
2023/07/19 02:04:21;;;;;;;3.88;2.63;;;14.00;99.90;;;;;;4976433;28;20230;-86
2023/07/19 02:06:47;;;;;;;4.72;2.95;;;14.00;99.90;;;;;;4958929;28;20265;-86
2023/07/19 02:09:12;;;;;;;4.38;2.88;;;14.00;99.90;;;;;;4958747;28;20225;-86
2023/07/19 02:11:38;;;;;;;5.05;3.20;;;14.00;99.90;;;;;;4958972;28;20189;-86
2023/07/19 02:14:04;;;;;;;4.18;3.10;;;13.90;99.90;;;;;;4976328;28;20241;-86
2023/07/19 02:16:29;;;;;;;4.05;2.78;;;13.90;99.90;;;;;;4976241;28;20170;-87
2023/07/19 02:18:55;;;;;;;4.20;2.83;;;13.90;99.90;;;;;;4942806;28;20272;-86
2023/07/19 02:21:22;;;;;;;8.50;3.35;;;13.80;99.90;;;;;;4959109;28;20182;-86
2023/07/19 02:23:47;;;;;;;5.68;3.20;;;13.90;99.90;;;;;;4958872;28;20270;-86
2023/07/19 02:26:13;;;;;;;4.25;2.67;;;13.90;99.90;;;;;;4975916;28;20286;-86
2023/07/19 02:28:39;;;;;;;5.05;3.10;;;13.90;99.90;;;;;;4976004;28;20539;-86
2023/07/19 02:31:04;;;;;;;6.40;2.88;;;13.90;99.90;;;;;;4975043;28;20185;-86
2023/07/19 02:33:30;;;;;;;3.65;2.75;;;13.90;99.90;;;;;;4974575;28;20186;-86
2023/07/19 02:35:56;;;;;;;4.95;3.10;;;13.90;99.90;;;;;;4958081;28;20274;-86
2023/07/19 02:38:22;;;;;;;5.15;3.13;;;13.80;99.90;;;;;;4975997;28;20179;-86
2023/07/19 02:40:48;;;;;;;6.82;3.00;;;13.90;99.90;;;;;;4958303;28;20285;-86
2023/07/19 02:43:14;;;;;;;4.72;2.80;;;13.90;99.90;;;;;;4974485;28;20834;-86
2023/07/19 02:45:41;;;;;;;7.57;3.25;;;13.80;99.90;;;;;;4974634;28;20179;-86
2023/07/19 02:48:07;;;;;;;3.75;2.50;;;13.70;99.90;;;;;;4975470;28;20210;-85
2023/07/19 02:50:33;;;;;;;3.33;2.40;;;13.60;99.90;;;;;;4974230;28;20269;-85
2023/07/19 02:52:58;;;;;;;8.05;2.78;;;13.60;99.90;;;;;;4974175;28;20174;-85
2023/07/19 02:55:24;;;;;;;4.20;2.70;;;13.70;99.90;;;;;;4974185;28;20329;-85
2023/07/19 02:57:50;;;;;;;7.88;3.03;;;13.70;99.90;;;;;;4974639;28;20632;-85
2023/07/19 03:00:15;;;;;;;3.67;2.70;;;13.70;99.90;;;;;;4975697;28;20296;-86
2023/07/19 03:02:41;;;;;;;7.72;3.30;;;13.80;99.90;;;;;;4974917;28;20661;-85
2023/07/19 03:05:07;;;;;;;5.53;3.00;;;13.80;99.90;;;;;;4975497;28;20229;-85
2023/07/19 03:07:33;;;;;;;6.22;2.50;;;13.90;99.90;;;;;;4974148;28;20186;-85
2023/07/19 03:09:59;;;;;;;6.68;3.00;;;13.90;99.90;;;;;;4973577;28;20206;-87
2023/07/19 03:12:25;;;;;;;8.50;2.80;;;13.90;99.90;;;;;;4975562;28;20167;-86
2023/07/19 03:14:51;;;;;;;5.18;2.72;;;13.90;99.90;;;;;;4957909;28;20190;-86
2023/07/19 03:17:16;;;;;;;10.73;2.60;;;14.00;99.90;;;;;;4973624;28;20183;-85
2023/07/19 03:19:45;;;;;;;5.82;2.92;;;14.00;99.90;;;;;;4975023;28;20201;-85
2023/07/19 03:22:11;;;;;;;3.95;2.72;;;14.10;99.90;;;;;;4974921;28;20241;-85
2023/07/19 03:24:36;;;;;;;4.63;2.58;;;14.10;99.90;;;;;;4973525;28;20648;-85
2023/07/19 03:27:02;;;;;;;7.95;3.17;;;14.10;99.90;;;;;;4973684;28;20189;-86
2023/07/19 03:29:28;;;;;;;5.68;3.25;;;14.20;99.90;;;;;;4974732;28;20272;-84
2023/07/19 03:31:53;;;;;;;6.32;2.63;;;14.20;99.90;;;;;;4957390;28;20183;-87
2023/07/19 03:34:19;;;;;;;5.25;2.65;;;14.20;99.90;;;;;;4957567;28;20190;-86
2023/07/19 03:36:45;;;;;;;7.97;2.85;;;14.30;99.90;;;;;;4973411;28;20179;-85
2023/07/19 03:39:10;;;;;;;5.82;2.90;;;14.30;99.90;;;;;;4973355;28;20523;-85
2023/07/19 03:41:36;;;;;;;5.03;2.92;;;14.40;99.90;;;;;;4941691;28;20186;-85
2023/07/19 03:44:01;;;;;;;4.95;3.20;;;14.40;99.90;;;;;;4973442;28;20187;-88
2023/07/19 03:46:27;;;;;;;7.28;3.05;;;14.30;99.90;;;;;;4974816;28;20190;-87
2023/07/19 03:48:53;;;;;;;4.18;3.03;;;14.40;99.90;;;;;;4973442;28;20187;-85
2023/07/19 03:51:19;;;;;;;4.25;2.55;;;14.50;99.90;;;;;;4973070;28;20170;-86
2023/07/19 03:53:45;;;;;;;3.60;2.65;;;14.60;99.90;;;;;;4956939;28;20182;-86
2023/07/19 03:56:10;;;;;;;6.40;2.53;;;14.70;99.90;;;;;;4957179;28;20186;-86
2023/07/19 03:58:39;;;;;;;5.35;2.80;;;14.70;99.90;;;;;;4974485;28;20190;-86
2023/07/19 04:01:04;;;;;;;6.47;3.13;;;14.80;99.90;;;;;;4972982;28;20597;-86
2023/07/19 04:03:30;;;;;;;5.82;3.13;;;14.90;99.90;;;;;;4974474;28;20175;-86
2023/07/19 04:05:57;;;;;;;3.88;3.00;;;15.00;99.90;;;;;;4980689;28;20194;-86
2023/07/19 04:08:23;;;;;;;5.28;2.80;;;15.10;99.90;;;;;;4976242;28;20178;-86
2023/07/19 04:10:48;;;;;;;3.92;2.95;;;15.20;99.90;;;;;;4992450;28;20276;-86
2023/07/19 04:13:14;;;;;;;3.85;2.95;;;15.30;99.90;;;;;;4976335;28;20718;-87
2023/07/19 04:15:40;;;;;;;5.03;3.28;;;15.40;99.90;;;;;;4992640;28;20541;-89
2023/07/19 04:18:06;;;;;;;5.40;3.10;;;15.50;99.90;;;;;;4976274;28;20220;-87
2023/07/19 04:20:33;;;;;;;6.60;3.55;;;15.70;99.90;;;;;;4996872;28;20186;-86
2023/07/19 04:22:58;;;;;;;3.65;2.80;;;15.80;99.90;;;;;;4979962;28;20173;-85
2023/07/19 04:25:24;;;;;;;6.88;2.67;;;15.90;99.90;;;;;;4980092;28;20657;-88
2023/07/19 04:27:53;;;;;;;5.78;2.95;;;16.00;99.90;;;;;;4997719;28;20265;-87
2023/07/19 04:30:19;;;;;;;3.95;2.45;;;16.10;99.90;;;;;;5000368;28;20209;-88
2023/07/19 04:32:45;;;;;;;6.85;2.80;;;16.20;99.90;;;;;;5004160;28;20661;-87
2023/07/19 04:35:11;;;;;;;6.90;3.83;;;16.30;99.90;;;;;;4997378;28;20575;-88
2023/07/19 04:37:40;;;;;;;6.13;3.05;;;16.40;99.90;;;;;;4964255;28;20643;-88
2023/07/19 04:40:09;;;;;;;5.90;2.35;;;16.60;99.90;;;;;;4980621;28;20186;-87
2023/07/19 04:42:35;;;;;;;7.20;2.35;;;16.70;99.90;;;;;;4996160;28;20182;-87
2023/07/19 04:45:01;;;;;;;3.95;2.40;;;16.80;99.90;;;;;;4997502;28;20178;-86
2023/07/19 04:47:26;;;;;;;2.78;2.17;;;17.00;99.90;;;;;;4963797;28;20225;-87
2023/07/19 04:49:52;;;;;;;4.85;1.67;;;17.10;99.90;;;;;;4963470;28;20280;-86
2023/07/19 04:52:18;;;;;;;4.68;2.22;;;17.30;99.90;;;;;;4997045;28;20178;-86
2023/07/19 04:54:47;;;;;;;3.47;1.88;;;17.40;99.90;;;;;;4997239;28;20185;-87
2023/07/19 04:57:13;;;;;;;3.60;1.75;;;17.50;99.90;;;;;;4997252;28;20273;-86
2023/07/19 04:59:39;;;;;;;3.20;2.15;;;17.70;99.90;;;;;;4995692;28;20332;-86
2023/07/19 05:02:05;;;;;;;5.07;1.75;;;17.70;99.90;;;;;;4997690;28;20188;-87
2023/07/19 05:04:30;;;;;;;3.47;1.60;;;17.80;99.90;;;;;;4961235;28;20248;-87
2023/07/19 05:06:56;;;;;;;3.05;1.80;;;17.90;99.90;;;;;;4995665;28;20542;-90
2023/07/19 05:09:22;;;;;;;6.65;1.95;;;18.10;99.90;;;;;;4963694;28;20218;-85
2023/07/19 05:11:47;;;;;;;2.50;1.85;;;18.20;99.90;;;;;;4996818;28;20533;-87
2023/07/19 05:14:13;;;;;;;4.13;1.63;;;18.40;99.90;;;;;;4979223;28;20689;-87
2023/07/19 05:16:39;;;;;;;5.80;1.42;;;18.50;99.90;;;;;;4995437;28;20222;-87
2023/07/19 05:19:06;;;;;;;1.75;1.23;;;18.70;99.90;;;;;;4980131;28;20192;-89
2023/07/19 05:21:31;;;;;;;1.42;1.15;;;18.80;99.90;;;;;;4996709;28;20386;-87
2023/07/19 05:23:57;;;;;;;1.10;1.00;;;19.00;99.90;;;;;;4996564;28;20178;-87
2023/07/19 05:26:24;;;;;;;5.68;1.17;;;19.00;99.90;;;;;;4995262;28;20781;-88
2023/07/19 05:28:50;;;;;;;1.45;1.30;;;19.10;99.90;;;;;;4995318;28;20184;-88
2023/07/19 05:31:15;;;;;;;1.52;1.40;;;19.20;99.90;;;;;;4995475;28;20261;-88
2023/07/19 05:33:41;;;;;;;2.70;1.10;;;19.40;99.90;;;;;;4963025;28;20181;-88
2023/07/19 05:36:07;;;;;;;3.22;1.63;;;19.50;99.90;;;;;;4996649;28;20577;-90
2023/07/19 05:38:32;;;;;;;2.55;1.33;;;19.70;99.90;;;;;;4995009;28;20182;-87
2023/07/19 05:41:03;;;;;;;1.83;1.30;;;19.80;99.90;;;;;;4979022;28;20248;-87
2023/07/19 05:43:29;;;;;;;2.80;1.02;;;19.80;99.90;;;;;;4964188;28;20185;-88
2023/07/19 05:46:08;;;;;;;2.15;1.20;;;19.90;99.90;;;;;;4996292;28;20689;-87
2023/07/19 05:48:34;;;;;;;1.77;1.25;;;19.90;99.90;;;;;;4996175;28;20178;-87
2023/07/19 05:51:01;;;;;;;5.88;1.10;;;20.10;99.90;;;;;;4962557;28;20221;-87
2023/07/19 05:53:26;;;;;;;3.47;1.15;;;20.20;99.60;;;;;;4978630;28;20205;-87
2023/07/19 05:55:52;;;;;;;3.33;1.10;;;20.40;99.30;;;;;;4962651;28;20655;-88
2023/07/19 05:58:21;;;;;;;2.97;1.20;;;20.50;96.80;;;;;;4995526;28;20548;-88
2023/07/19 06:00:49;;;;;;;1.98;1.00;;;20.60;95.40;;;;;;4983289;28;20233;-88
2023/07/19 06:03:16;;;;;;;3.38;1.05;;;20.70;95.30;;;;;;5009039;28;20194;-88
2023/07/19 06:05:43;;;;;;;1.77;1.00;;;20.90;95.40;;;;;;4998033;28;20179;-89
2023/07/19 06:08:10;;;;;;;1.45;1.02;;;21.10;94.30;;;;;;4975334;28;20187;-88
2023/07/19 06:10:35;;;;;;;3.40;1.60;;;21.10;92.50;;;;;;5012186;28;20319;-89
2023/07/19 06:13:03;;;;;;;11.13;4.05;;;21.00;90.60;;;;;;4964262;28;20220;-89
2023/07/19 06:15:29;;;;;;;2.45;1.55;;;21.10;94.10;;;;;;4982953;28;20181;-91
2023/07/19 06:17:55;;;;;;;3.97;1.15;;;21.20;92.70;;;;;;5001981;28;20280;-89
2023/07/19 06:20:24;;;;;;;4.40;0.98;;;21.30;91.70;;;;;;4980071;28;20279;-89
2023/07/19 06:22:49;;;;;;;2.35;1.20;;;21.50;91.90;;;;;;4993138;28;20228;-88
2023/07/19 06:25:16;;;;;;;2.47;0.90;;;21.70;86.90;;;;;;4999417;28;20178;-89
2023/07/19 06:27:42;;;;;;;1.65;1.02;;;21.80;86.40;;;;;;4977233;28;20178;-88
2023/07/19 06:30:09;;;;;;;2.58;1.30;;;21.70;82.30;;;;;;4992801;28;20635;-89
2023/07/19 06:32:36;;;;;;;3.00;1.40;;;21.70;86.50;;;;;;4995785;28;20181;-88
2023/07/19 06:35:02;;;;;;;2.97;1.48;;;21.70;87.20;;;;;;5000124;28;20248;-88
2023/07/19 06:37:28;;;;;;;3.30;1.40;;;21.70;86.30;;;;;;4991838;28;20193;-88
2023/07/19 06:39:54;;;;;;;1.55;1.25;;;21.80;83.10;;;;;;4976618;28;20213;-90
2023/07/19 06:42:19;;;;;;;1.83;1.50;;;21.80;85.60;;;;;;4976302;28;20178;-89
2023/07/19 06:44:45;;;;;;;1.85;1.45;;;21.90;88.50;;;;;;4992547;28;20193;-89
2023/07/19 06:47:10;;;;;;;4.68;1.50;;;21.90;83.20;;;;;;4992284;28;20256;-88
2023/07/19 06:49:37;;;;;;;3.83;1.10;;;22.00;82.70;;;;;;4977071;28;20252;-88
2023/07/19 06:52:03;;;;;;;1.52;1.13;;;21.90;81.90;;;;;;4976759;28;20269;-88
2023/07/19 06:54:29;;;;;;;2.33;1.48;;;22.00;79.40;;;;;;4976493;28;20182;-88
2023/07/19 06:56:55;;;;;;;2.17;1.30;;;22.10;79.60;;;;;;4976770;28;20554;-88
2023/07/19 06:59:20;;;;;;;8.00;1.30;;;22.20;74.00;;;;;;4992676;28;20560;-89
2023/07/19 07:01:46;;;;;;;1.25;1.10;;;22.30;74.60;;;;;;4979430;28;20182;-88
2023/07/19 07:04:12;;;;;;;2.13;1.15;;;22.40;75.40;;;;;;4959381;28;20186;-89
2023/07/19 07:06:37;;;;;;;2.55;1.20;;;22.60;76.50;;;;;;4955949;28;20214;-89
2023/07/19 07:09:03;;;;;;;3.13;1.13;;;22.50;69.50;;;;;;4954464;28;20218;-88
2023/07/19 07:11:29;;;;;;;3.45;1.20;;;22.60;69.30;;;;;;4987073;28;20233;-88
2023/07/19 07:13:54;;;;;;;1.77;1.30;;;22.70;71.30;;;;;;4954289;28;20220;-88
2023/07/19 07:16:20;;;;;;;1.30;1.00;;;22.70;69.30;;;;;;4979616;28;20534;-88
2023/07/19 07:18:46;;;;;;;5.07;1.20;;;22.80;65.70;;;;;;4975133;28;20182;-88
2023/07/19 07:21:11;;;;;;;2.55;1.42;;;22.90;65.80;;;;;;4960622;28;20182;-89
2023/07/19 07:23:37;;;;;;;3.22;1.63;;;22.90;66.50;;;;;;4958663;28;20182;-89
2023/07/19 07:26:03;;;;;;;3.33;2.03;;;23.00;68.70;;;;;;4978797;28;20174;-89
2023/07/19 07:28:29;;;;;;;5.35;1.10;;;23.10;67.70;;;;;;4979062;28;20178;-89
2023/07/19 07:30:54;;;;;;;2.53;1.98;;;23.30;68.20;;;;;;4989144;28;20531;-88
2023/07/19 07:33:20;;;;;;;1.05;0.93;;;23.30;64.70;;;;;;4979617;28;20673;-89
2023/07/19 07:35:46;;;;;;;6.15;1.13;;;23.30;65.10;;;;;;4984574;28;20178;-92
2023/07/19 07:38:12;;;;;;;3.92;1.20;;;23.40;63.60;;;;;;4970460;28;20190;-91
2023/07/19 07:40:40;;;;;;;3.97;1.20;;;22.70;60.90;;;;;;4978805;28;20279;-91
2023/07/19 07:43:07;;;;;;;1.45;1.08;;;23.20;61.60;;;;;;4968372;28;20186;-93
2023/07/19 07:45:32;;;;;;;1.45;1.10;;;23.10;63.40;;;;;;4993762;28;20192;-91
2023/07/19 07:47:58;;;;;;;1.50;1.10;;;23.10;62.50;;;;;;4965064;28;20610;-92
2023/07/19 07:50:25;;;;;;;1.17;1.00;;;23.20;63.90;;;;;;4946035;28;20232;-88
2023/07/19 07:52:53;;;;;;;1.38;0.95;;;23.60;65.00;;;;;;4985268;28;20217;-88
2023/07/19 07:55:18;;;;;;;1.10;0.90;;;23.30;65.70;;;;;;4992460;28;20662;-91
2023/07/19 07:57:45;;;;;;;2.22;1.13;;;23.20;64.40;;;;;;4967501;28;20209;-91
2023/07/19 08:00:11;;;;;;;1.17;0.95;;;23.40;64.40;;;;;;4945072;28;20226;-92
2023/07/19 08:02:38;;;;;;;1.95;1.25;;;23.30;64.50;;;;;;4968081;28;20178;-93
2023/07/19 08:05:06;;;;;;;1.30;0.80;;;23.40;66.20;;;;;;4994474;28;20639;-95
2023/07/19 08:07:32;;;;;;;1.38;1.00;;;23.50;63.00;;;;;;4960534;28;20210;-95
2023/07/19 08:09:58;;;;;;;2.33;1.27;;;23.50;66.10;;;;;;4983944;28;20240;-96
2023/07/19 08:12:24;;;;;;;1.95;1.00;;;23.70;66.10;;;;;;4980453;28;20177;-94
2023/07/19 08:14:50;;;;;;;1.85;1.20;;;23.70;62.90;;;;;;4960480;28;20181;-94
2023/07/19 08:17:16;;;;;;;1.60;1.10;;;23.80;64.80;;;;;;4977322;28;20285;-95
2023/07/19 08:19:42;;;;;;;2.65;0.95;;;24.10;65.90;;;;;;4994076;28;20213;-92
2023/07/19 08:22:22;;;;;;;1.90;1.25;;;23.80;64.20;;;;;;4995233;28;20224;-94
2023/07/19 08:24:48;;;;;;;1.33;1.00;;;23.90;64.20;;;;;;4979304;28;20190;-90
2023/07/19 08:27:14;;;;;;;2.85;1.42;;;24.00;64.50;;;;;;4992532;28;20182;-90
2023/07/19 08:29:40;;;;;;;3.28;1.00;;;24.10;63.00;;;;;;4977455;28;20233;-89
2023/07/19 08:32:06;;;;;;;3.38;1.30;;;24.10;60.50;;;;;;4993857;28;20631;-92
2023/07/19 08:34:32;;;;;;;3.90;1.02;;;24.20;63.40;;;;;;4991135;28;20193;-90
2023/07/19 08:36:59;;;;;;;1.83;1.10;;;24.10;63.00;;;;;;4970766;28;20209;-89
2023/07/19 08:39:27;;;;;;;1.13;1.02;;;24.50;64.10;;;;;;4976380;28;20189;-91
2023/07/19 08:41:53;;;;;;;1.42;0.82;;;24.30;57.90;;;;;;4991596;28;20178;-89
2023/07/19 08:44:23;;;;;;;1.38;1.00;;;24.20;55.00;;;;;;4958187;28;20239;-91
2023/07/19 08:46:49;;;;;;;2.25;1.27;;;23.90;57.30;;;;;;4996023;28;20236;-90
2023/07/19 08:49:18;;;;;;;2.55;1.20;;;24.40;56.80;;;;;;4993129;28;20213;-92
2023/07/19 08:51:47;;;;;;;1.55;0.90;;;25.30;56.70;;;;;;4993926;28;20177;-90
2023/07/19 08:54:13;;;;;;;1.75;1.10;;;24.70;55.50;;;;;;4960530;28;20189;-91
2023/07/19 08:56:41;;;;;;;12.75;1.20;;;24.70;54.20;;;;;;4988039;28;20174;-91
2023/07/19 08:59:08;;;;;;;4.68;1.15;;;24.80;55.00;;;;;;4991275;28;20246;-91
2023/07/19 09:01:34;;;;;;;4.03;1.23;;;24.80;54.80;;;;;;4992993;28;20193;-89
2023/07/19 09:04:00;;;;;;;2.88;1.00;;;24.70;54.20;;;;;;4981023;28;20186;-90
2023/07/19 09:06:28;;;;;;;1.63;1.02;;;24.70;52.40;;;;;;4997916;28;20693;-90
2023/07/19 09:09:00;;;;;;;2.47;1.05;;;24.80;52.40;;;;;;5002442;28;20186;-89
2023/07/19 09:11:25;;;;;;;0.88;0.75;;;24.30;50.90;;;;;;4998979;28;20182;-90
2023/07/19 09:13:56;;;;;;;1.80;0.88;;;24.80;52.30;;;;;;4988073;28;20702;-90
2023/07/19 09:16:27;;;;;;;1.10;0.90;;;25.00;52.20;;;;;;5015043;28;20181;-90
2023/07/19 09:18:54;;;;;;;1.45;1.10;;;25.50;53.80;;;;;;4986626;28;20565;-91
2023/07/19 09:21:35;;;;;;;1.35;1.10;;;25.10;54.50;;;;;;4971658;28;20238;-91
2023/07/19 09:24:05;;;;;;;1.60;1.08;;;25.10;52.30;;;;;;4998078;28;20193;-90
2023/07/19 09:26:50;;;;;;;1.17;1.05;;;25.10;53.30;;;;;;4996852;28;20177;-87
2023/07/19 09:29:17;;;;;;;1.30;1.15;;;25.20;52.70;;;;;;4978172;28;20217;-92
2023/07/19 09:31:54;;;;;;;2.08;1.10;;;25.60;53.10;;;;;;4958256;28;20197;-89
2023/07/19 09:34:28;;;;;;;2.05;1.20;;;25.50;52.30;;;;;;4959152;28;20194;-90
2023/07/19 09:36:55;;;;;;;1.38;0.98;;;25.60;52.30;;;;;;4971837;28;20197;-89
2023/07/19 09:39:22;;;;;;;2.13;1.02;;;25.80;51.90;;;;;;4956819;28;20266;-88
2023/07/19 09:41:48;;;;;;;1.67;1.10;;;25.70;50.30;;;;;;4974320;28;20249;-90
2023/07/19 09:44:18;;;;;;;1.30;1.20;;;25.70;51.10;;;;;;4969177;28;20185;-88
2023/07/19 09:46:45;;;;;;;1.40;1.10;;;25.80;50.60;;;;;;4994886;28;20263;-88
2023/07/19 09:49:11;;;;;;;2.20;1.38;;;25.90;51.10;;;;;;4986774;28;20300;-88
2023/07/19 09:51:42;;;;;;;1.83;1.20;;;26.00;49.00;;;;;;4960839;28;20205;-88
2023/07/19 09:54:12;;;;;;;2.00;1.10;;;26.00;49.20;;;;;;4965560;28;20651;-88
2023/07/19 09:56:39;;;;;;;2.75;1.33;;;26.00;48.00;;;;;;5012489;28;20209;-89
2023/07/19 09:59:08;;;;;;;3.33;1.23;;;26.00;49.30;;;;;;4996301;28;20193;-89
2023/07/19 10:01:35;;;;;;;1.30;1.05;;;26.10;50.90;;;;;;5014341;28;20205;-89
2023/07/19 10:04:01;;;;;;;1.60;1.10;;;26.30;50.00;;;;;;4981265;28;20196;-90
2023/07/19 10:06:30;;;;;;;2.10;1.33;;;26.30;48.60;;;;;;5012336;28;20264;-87
2023/07/19 10:09:35;;;;;;;1.20;1.10;;;26.30;48.40;;;;;;5010383;28;20190;-90
2023/07/19 10:12:05;;;;;;;1.23;1.00;;;26.40;47.50;;;;;;4989919;28;20200;-90
2023/07/19 10:14:32;;;;;;;6.20;1.52;;;26.30;48.00;;;;;;4995157;28;20194;-90
2023/07/19 10:17:00;;;;;;;7.20;1.60;;;26.60;48.40;;;;;;4995634;28;20186;-89
2023/07/19 10:19:28;;;;;;;1.50;1.15;;;26.70;48.00;;;;;;5000161;28;20196;-89
2023/07/19 10:22:02;;;;;;;1.77;1.20;;;27.00;48.50;;;;;;4980282;28;20209;-90
2023/07/19 10:24:28;;;;;;;1.60;1.13;;;27.20;48.30;;;;;;4990511;28;20199;-90
2023/07/19 10:26:53;;;;;;;3.70;1.08;;;27.00;45.70;;;;;;4974666;28;20194;-89
2023/07/19 10:29:19;;;;;;;1.67;1.17;;;26.80;47.80;;;;;;4960119;28;20214;-88
2023/07/19 10:31:45;;;;;;;3.05;1.30;;;26.90;49.10;;;;;;4993587;28;20174;-89
2023/07/19 10:34:11;;;;;;;3.03;1.65;;;27.00;49.60;;;;;;4992238;28;20186;-89
2023/07/19 10:36:46;;;;;;;2.53;1.20;;;27.10;47.30;;;;;;4959763;28;20198;-90
2023/07/19 10:39:12;;;;;;;1.95;1.10;;;27.00;47.60;;;;;;4997252;28;20186;-88
2023/07/19 10:41:37;;;;;;;1.27;1.17;;;26.80;46.20;;;;;;4981949;28;20556;-90
2023/07/19 10:44:03;;;;;;;3.22;0.90;;;26.70;48.00;;;;;;4968208;28;20224;-88
2023/07/19 10:46:29;;;;;;;3.08;1.48;;;26.40;46.10;;;;;;4977480;28;20654;-89
2023/07/19 10:48:55;;;;;;;2.78;1.17;;;26.30;48.00;;;;;;4996868;28;20607;-89
2023/07/19 10:51:24;;;;;;;1.85;1.23;;;26.40;47.60;;;;;;4976175;28;20174;-89
2023/07/19 10:53:57;;;;;;;2.30;1.27;;;26.30;47.20;;;;;;4976191;28;20189;-86
2023/07/19 10:56:23;;;;;;;2.00;1.38;;;26.30;47.10;;;;;;4974188;28;20637;-88
2023/07/19 10:58:49;;;;;;;2.00;1.20;;;26.20;46.70;;;;;;4976269;28;20214;-86
2023/07/19 11:01:23;;;;;;;1.58;1.20;;;26.10;48.00;;;;;;4976467;28;20255;-87
2023/07/19 11:03:48;;;;;;;2.60;1.42;;;25.10;48.10;;;;;;4976731;28;20185;-87
2023/07/19 11:06:14;;;;;;;2.17;1.13;;;26.10;49.90;;;;;;4992003;28;20554;-88
2023/07/19 11:08:40;;;;;;;1.67;1.25;;;26.40;49.20;;;;;;4977663;28;20182;-90
2023/07/19 11:11:09;;;;;;;1.92;1.52;;;26.60;49.00;;;;;;4991729;28;20399;-88
2023/07/19 11:13:37;;;;;;;2.35;1.35;;;26.90;48.80;;;;;;4978190;28;20193;-90
2023/07/19 11:16:04;;;;;;;4.63;1.17;;;27.40;49.90;;;;;;4992654;28;20280;-90
2023/07/19 11:18:41;;;;;;;3.33;1.40;;;27.50;44.60;;;;;;5013721;28;20169;-90
2023/07/19 11:21:07;;;;;;;3.35;1.50;;;27.40;47.00;;;;;;5013543;28;20348;-87
2023/07/19 11:23:44;;;;;;;2.20;1.42;;;27.30;46.30;;;;;;4996160;28;20173;-87
2023/07/19 11:26:13;;;;;;;2.60;1.20;;;27.30;47.50;;;;;;5013431;28;20326;-89
2023/07/19 11:28:45;;;;;;;1.50;1.40;;;27.60;46.60;;;;;;4996203;28;20536;-88
2023/07/19 11:31:26;;;;;;;1.98;1.50;;;27.50;48.00;;;;;;4995986;28;20220;-90
2023/07/19 11:33:59;;;;;;;1.40;1.20;;;27.30;47.00;;;;;;5012335;28;20196;-87
2023/07/19 11:36:25;;;;;;;1.48;1.30;;;27.40;48.10;;;;;;4997487;28;20637;-87
2023/07/19 11:38:51;;;;;;;1.83;1.23;;;27.50;47.20;;;;;;5015071;28;20191;-89
2023/07/19 11:41:17;;;;;;;1.92;1.10;;;27.40;48.10;;;;;;4998320;28;20205;-88
2023/07/19 11:43:45;;;;;;;2.80;1.13;;;27.20;48.60;;;;;;4982858;28;20639;-87
2023/07/19 11:46:13;;;;;;;1.67;1.58;;;27.00;48.00;;;;;;5013034;28;20179;-88
2023/07/19 11:48:39;;;;;;;2.15;1.35;;;26.90;48.70;;;;;;5012852;28;20177;-87
2023/07/19 11:51:05;;;;;;;1.42;1.30;;;26.80;47.40;;;;;;5012347;28;20219;-86
2023/07/19 11:53:31;;;;;;;2.75;1.40;;;26.70;47.60;;;;;;5012638;28;20638;-87
2023/07/19 11:55:56;;;;;;;1.92;1.27;;;26.50;48.90;;;;;;4995153;28;20185;-87
2023/07/19 11:58:23;;;;;;;2.38;1.30;;;26.60;48.30;;;;;;4995427;28;20590;-88
2023/07/19 12:00:48;;;;;;;1.40;1.20;;;26.80;48.70;;;;;;4996004;28;20248;-87
2023/07/19 12:03:14;;;;;;;1.45;1.30;;;27.00;47.40;;;;;;5012863;28;20546;-87
2023/07/19 12:05:40;;;;;;;1.73;1.02;;;26.90;46.60;;;;;;5012935;28;20692;-88
2023/07/19 12:08:06;;;;;;;6.18;1.25;;;26.90;46.70;;;;;;5013609;28;20231;-88
2023/07/19 12:10:32;;;;;;;2.47;1.60;;;27.00;48.40;;;;;;4995269;28;20271;-88
2023/07/19 12:12:58;;;;;;;1.83;1.23;;;27.00;48.00;;;;;;4962739;28;20181;-87
2023/07/19 12:15:24;;;;;;;4.43;1.35;;;27.10;46.50;;;;;;5012639;28;20263;-87
2023/07/19 12:17:50;;;;;;;2.15;1.33;;;27.10;47.30;;;;;;4994629;28;20243;-88
2023/07/19 12:20:16;;;;;;;1.63;0.90;;;27.10;47.20;;;;;;4994968;28;20659;-88
2023/07/19 12:22:43;;;;;;;3.03;1.20;;;27.10;46.60;;;;;;4995463;28;20268;-88
2023/07/19 12:25:10;;;;;;;1.77;1.20;;;27.10;46.50;;;;;;4985346;28;20645;-88
2023/07/19 12:27:36;;;;;;;2.58;1.25;;;27.10;47.30;;;;;;4994095;28;20170;-89
2023/07/19 12:30:02;;;;;;;3.15;1.40;;;27.20;47.80;;;;;;4976110;28;20674;-88
2023/07/19 12:32:28;;;;;;;2.33;1.30;;;27.20;46.40;;;;;;4977575;28;20181;-89
2023/07/19 12:34:55;;;;;;;1.70;1.00;;;27.20;47.30;;;;;;4981414;28;20619;-90
2023/07/19 12:37:23;;;;;;;1.63;1.38;;;27.10;45.80;;;;;;4995497;28;20249;-89
2023/07/19 12:39:50;;;;;;;2.53;1.33;;;27.10;50.70;;;;;;4961555;28;20269;-90
2023/07/19 12:42:16;;;;;;;2.97;1.40;;;27.30;48.40;;;;;;4961495;28;20640;-89
2023/07/19 12:44:45;;;;;;;2.10;1.40;;;27.20;47.80;;;;;;4978109;28;20240;-91